Andrus Island, California
Current Conditions -  °F | °C
As of 8:58 AM on Sunday 23 Nov 2014 (Local Time) from KSUU Reporting Station
Clear Clear  
Wind Chill: 56°   Ceiling: Unl
Heat Index: 56°   Visibility: 10mi
Dew Point: 47°   Wind: 9mph
Humidity: 72%   Direction: 330°NNW
Pressure: 30.3"   Gusts: NA
Location:  38.1457°N, 121.624°W
Report Text: KSUU 231658Z AUTO 33008KT 10SM CLR 14/09 A3030 RMK AO2 SLP267 T01350086 $
Loading
Personal Weather Stations






























Interactive Weather Map New forecast layout! Learn more

10-Day Weather Forecast

Advertisements
Track Severe Weather on mobile